NCAR-RAP Real-Time Weather Data

Output produced by METARs form (23 January 2018  15:41 UTC)
found at http://weather.rap.ucar.edu/surface/
 
RJCB 231100Z VRB01KT 1000 R35/P1800N -SHSN SCT005 BKN006 M05/M06 Q0996
RJCB 231000Z 09001KT 1400 R35/P1800N -SHSN FEW004 BKN005 M05/M06 Q0997
RJCB 230912Z 00000KT 1000 R35/P1800N -SHSN VV005 M05/M06 Q0998 RMK A2947
RJCB 230900Z 00000KT 1000 R35/P1800N -SHSN VV004 M05/M06 Q0997
RJCB 230812Z VRB01KT 0800 R35/1000V1700U SHSN VV003 M05/M06 Q0998 RMK A2947
RJCB 230805Z VRB01KT 0800 R35/0900V1800D SHSN VV003 M05/M06 Q0998 RMK A2948
RJCB 230800Z VRB01KT 0800 R35/1000VP1800D SHSN VV004 M05/M07 Q0998
RJCB 230746Z VRB02KT 0900 R35/1100V1800U SHSN VV004 M05/M07 Q0998 RMK A2948
RJCB 230734Z 34003KT 260V010 0900 R35/1100VP1800D SHSN VV003 M05/M07 Q0998 RMK A2949
RJCB 230728Z VRB02KT 1400 R35/1300VP1800D -SHSN FEW004 BKN015 M05/M07 Q0998 RMK 1ST004 7ST015 A2948
RJCB 230724Z VRB02KT 1500 R35/P1800N -SHSN FEW006 BKN015 M05/M07 Q0998 RMK 1ST006 7ST015 A2949
RJCB 230717Z VRB02KT 2300 -SHSN FEW010 BKN015 M06/M07 Q0998 RMK 1ST010 7ST015 A2949
RJCB 230700Z VRB02KT 3000 -SHSN FEW010 BKN015 M06/M07 Q0998
RJCB 230612Z 35003KT 3100 -SHSN FEW010 BKN015 M05/M07 Q0998 RMK 1ST010 7ST015 A2949
RJCB 230600Z 34003KT 3500 -SHSN FEW010 BKN015 BKN020 M06/M07 Q0999
RJCB 230545Z 34003KT 270V010 3200 -SHSN FEW010 SCT015 BKN020 M06/M07 Q0999 RMK 1ST010 3ST015 7CU020 A2950
RJCB 230536Z 35003KT 2400 -SHSN FEW010 BKN020 M06/M07 Q0999 RMK 2ST010 7CU020 A2951
RJCB 230517Z 34003KT 2300 -SHSN SCT010 BKN020 M06/M07 Q0999 RMK 3ST010 7CU020 A2952
RJCB 230509Z 36003KT 320V040 3100 -SHSN FEW010 BKN020 M06/M07 Q0999 RMK 1ST010 7CU020 A2952
RJCB 230500Z 35004KT 4900 -SHSN FEW015 BKN020 M06/M07 Q0999
RJCB 230425Z 33005KT 5000 -SHSN FEW015 BKN020 M06/M08 Q1000 RMK 1ST015 7CU020 A2953
RJCB 230411Z 34006KT 3200 -SHSN FEW015 BKN020 M06/M08 Q1000 RMK 1ST015 7CU020 A2953
RJCB 230400Z 35005KT 3000 -SHSN FEW015 BKN020 M06/M08 Q1000
RJCB 230347Z 34006KT 3100 -SHSN FEW015 BKN020 M06/M08 Q1000 RMK 1ST015 7CU020 A2955
RJCB 230340Z 34006KT 4900 -SHSN FEW015 BKN020 M06/M08 Q1001 RMK 1ST015 7CU020 A2956
RJCB 230326Z 34006KT 5000 -SHSN FEW015 BKN020 M06/M08 Q1001 RMK 1ST015 7CU020 A2957
RJCB 230310Z 31004KT 250V350 4900 -SHSN FEW015 BKN020 M06/M08 Q1002 RMK 1ST015 7CU020 A2959
RJCB 230300Z 33006KT 6000 -SHSN FEW015 BKN020 M06/M08 Q1002
RJCB 230200Z 34006KT 270V350 5000 -SHSN FEW015 BKN020 M07/M09 Q1004
RJCB 230150Z 32004KT 260V350 3200 -SHSN FEW015 BKN020 M07/M09 Q1004 RMK 1ST015 7CU020 A2967
RJCB 230139Z 32005KT 260V340 2400 -SHSN FEW015 BKN020 M07/M09 Q1005 RMK 1ST015 7CU020 A2968
RJCB 230102Z 34005KT 2300 -SN BKN020 M08/M10 Q1006 RMK 7ST020 A2971
RJCB 230100Z 34005KT 3100 -SN BKN020 M08/M10 Q1006
RJCB 230000Z 32003KT 270V010 4900 -SN BKN020 M09/M11 Q1007
RJCB 222300Z 35005KT 6000 -SN BKN018 M10/M13 Q1008
RJCB 222240Z 32003KT 290V350 8000 -SN BKN018 M10/M13 Q1009 RMK 7ST018 A2980
RJCB 221100Z 00000KT 9999 FEW050 BKN/// M13/M19 Q1018
RJCB 221000Z VRB01KT 9999 FEW050 SCT160 BKN/// M13/M19 Q1018
RJCB 220900Z 35001KT 9999 FEW050 BKN160 M12/M18 Q1017
RJCB 220800Z 00000KT 9999 FEW050 SCT/// M09/M18 Q1017
RJCB 220700Z VRB01KT 9999 FEW050 SCT/// M06/M19 Q1016
RJCB 220600Z 16002KT 9999 FEW050 BKN/// M05/M19 Q1017
RJCB 220500Z 15003KT 9999 FEW050 SCT/// M05/M19 Q1016
RJCB 220400Z VRB02KT 9999 FEW050 SCT/// M05/M18 Q1017
RJCB 220300Z 17003KT 120V260 9999 FEW050 M05/M17 Q1017
RJCB 220200Z 14005KT 9999 FEW050 M06/M20 Q1017
RJCB 220100Z 09005KT 070V130 9999 FEW040 M07/M19 Q1018
RJCB 220000Z VRB02KT 9999 FEW040 M06/M21 Q1018
RJCB 212300Z VRB02KT 9999 FEW040 M08/M20 Q1017
RJCB 212240Z 24003KT 200V330 9999 FEW040 M07/M20 Q1017 RMK 1CU040 A3003
RJCB 211100Z 29007G17KT 240V340 9999 FEW040 M09/M20 Q1011
RJCB 211000Z 29007G19KT 210V340 9999 FEW040 M08/M19 Q1010
RJCB 210900Z 29005KT 230V340 9999 FEW040 M07/M20 Q1010
RJCB 210800Z 30003KT 200V350 9999 FEW040 M06/M18 Q1009
RJCB 210700Z VRB01KT 9999 FEW040 M05/M16 Q1008
RJCB 210600Z VRB02KT 9999 FEW050 M05/M17 Q1008
RJCB 210500Z 01007KT 9999 FEW050 M04/M15 Q1008
RJCB 210400Z 36010KT 9999 FEW050 M05/M14 Q1008